Time;durP1;ratioP1;P1;durP2;ratioP2;P2;SDS_P1;SDS_P2;PMS_P1;PMS_P2;Temp;Humidity;BMP_temperature;BMP_pressure;BME280_temperature;BME280_humidity;BME280_pressure;Samples;Min_cycle;Max_cycle;Signal;HPM_P1;HPM_P2
2023/03/07 00:01:46;;;;;;;128.83;53.87;;;;;;;;;;10325423;28;20075;-79
2023/03/07 00:06:47;;;;;;;115.70;48.20;;;;;;;;;;10322209;28;20043;-79
2023/03/07 00:11:49;;;;;;;114.53;48.10;;;;;;;;;;10321022;28;20540;-79
2023/03/07 00:16:50;;;;;;;108.17;46.67;;;;;;;;;;10330539;28;20015;-79
2023/03/07 00:21:51;;;;;;;106.60;43.43;;;;;;;;;;10322414;28;20033;-80
2023/03/07 00:26:52;;;;;;;95.23;42.47;;;;;;;;;;10327767;28;20087;-79
2023/03/07 00:31:53;;;;;;;81.93;39.30;;;;;;;;;;10324163;28;20048;-79
2023/03/07 00:36:54;;;;;;;111.00;47.73;;;;;;;;;;10325665;28;20478;-79
2023/03/07 00:41:55;;;;;;;104.83;47.47;;;;;;;;;;10321418;28;20030;-80
2023/03/07 00:46:57;;;;;;;103.27;45.80;;;;;;;;;;10321355;28;20038;-80
2023/03/07 00:51:58;;;;;;;97.27;42.70;;;;;;;;;;10321794;28;20038;-80
2023/03/07 00:56:59;;;;;;;103.97;46.07;;;;;;;;;;10328878;28;20042;-78
2023/03/07 01:02:00;;;;;;;105.50;44.90;;;;;;;;;;10337134;28;20039;-79
2023/03/07 01:07:01;;;;;;;124.60;54.93;;;;;;;;;;10327459;28;20035;-80
2023/03/07 01:12:05;;;;;;;140.77;62.63;;;;;;;;;;10326054;28;20046;-80
2023/03/07 01:17:06;;;;;;;106.37;50.40;;;;;;;;;;10330021;28;20113;-79
2023/03/07 01:22:07;;;;;;;106.77;49.53;;;;;;;;;;10330429;28;20045;-80
2023/03/07 01:27:08;;;;;;;110.10;50.53;;;;;;;;;;10326813;28;20491;-79
2023/03/07 01:32:09;;;;;;;99.57;44.57;;;;;;;;;;10422115;22;20112;-78
2023/03/07 01:37:10;;;;;;;101.93;46.67;;;;;;;;;;10446774;28;20040;-80
2023/03/07 01:42:11;;;;;;;98.57;48.10;;;;;;;;;;10437841;28;20041;-79
2023/03/07 01:47:12;;;;;;;90.27;42.30;;;;;;;;;;10405374;28;20050;-80
2023/03/07 01:52:34;;;;;;;95.87;45.93;;;;;;;;;;10444025;28;20484;-81
2023/03/07 01:57:36;;;;;;;83.50;41.00;;;;;;;;;;10437316;28;20033;-80
2023/03/07 02:02:38;;;;;;;82.27;40.60;;;;;;;;;;10416264;28;20066;-79
2023/03/07 02:07:47;;;;;;;80.57;39.87;;;;;;;;;;10395678;28;20045;-80
2023/03/07 02:12:50;;;;;;;71.97;37.57;;;;;;;;;;10406542;28;20030;-79
2023/03/07 02:17:52;;;;;;;70.17;32.87;;;;;;;;;;10363380;28;20520;-80
2023/03/07 02:22:54;;;;;;;66.23;30.77;;;;;;;;;;10384754;28;20044;-80
2023/03/07 02:27:56;;;;;;;68.70;31.57;;;;;;;;;;10400221;22;20058;-80
2023/03/07 02:32:57;;;;;;;62.17;30.97;;;;;;;;;;10377522;22;20050;-79
2023/03/07 02:38:01;;;;;;;78.97;41.23;;;;;;;;;;10377610;28;20037;-80
2023/03/07 02:43:08;;;;;;;69.57;32.53;;;;;;;;;;10373095;28;20088;-79
2023/03/07 02:48:09;;;;;;;65.53;30.93;;;;;;;;;;10363931;28;20041;-81
2023/03/07 02:53:10;;;;;;;62.83;32.00;;;;;;;;;;10369894;28;20029;-78
2023/03/07 02:58:11;;;;;;;64.70;33.77;;;;;;;;;;10371076;28;20025;-81
2023/03/07 03:03:12;;;;;;;75.00;35.57;;;;;;;;;;10365798;28;20037;-80
2023/03/07 03:08:14;;;;;;;72.70;33.70;;;;;;;;;;10350732;28;20057;-79
2023/03/07 03:13:15;;;;;;;72.00;31.33;;;;;;;;;;10359614;28;20108;-81
2023/03/07 03:18:16;;;;;;;60.20;29.00;;;;;;;;;;10347725;28;20479;-80
2023/03/07 03:23:17;;;;;;;63.53;29.40;;;;;;;;;;10358844;28;20415;-78
2023/03/07 03:28:19;;;;;;;58.60;28.13;;;;;;;;;;10362118;28;20041;-80
2023/03/07 03:33:20;;;;;;;69.43;30.43;;;;;;;;;;10359871;28;20065;-81
2023/03/07 03:38:21;;;;;;;70.80;33.43;;;;;;;;;;10362632;28;20371;-81
2023/03/07 03:43:22;;;;;;;68.40;31.80;;;;;;;;;;10357905;28;20022;-79
2023/03/07 03:48:24;;;;;;;65.90;32.50;;;;;;;;;;10358767;28;20042;-81
2023/03/07 03:53:25;;;;;;;68.60;33.13;;;;;;;;;;10358727;28;20041;-79
2023/03/07 03:58:26;;;;;;;71.37;32.60;;;;;;;;;;10359786;28;20096;-80
2023/03/07 04:03:27;;;;;;;66.83;32.67;;;;;;;;;;10355703;28;20560;-79
2023/03/07 04:08:28;;;;;;;69.97;33.07;;;;;;;;;;10355293;28;20038;-81
2023/03/07 04:13:29;;;;;;;76.93;36.90;;;;;;;;;;10362426;28;20048;-82
2023/03/07 04:18:30;;;;;;;75.83;33.43;;;;;;;;;;10361695;28;20489;-79
2023/03/07 04:23:31;;;;;;;76.03;36.30;;;;;;;;;;10361588;28;20081;-82
2023/03/07 04:28:41;;;;;;;78.43;37.17;;;;;;;;;;10365503;28;20030;-81
2023/03/07 04:33:43;;;;;;;92.47;41.93;;;;;;;;;;10369692;28;20033;-79
2023/03/07 04:38:44;;;;;;;87.57;40.43;;;;;;;;;;10369925;28;20486;-79
2023/03/07 04:43:45;;;;;;;89.23;40.03;;;;;;;;;;10369439;28;20026;-79
2023/03/07 04:48:46;;;;;;;77.43;36.77;;;;;;;;;;10368425;28;20030;-80
2023/03/07 04:53:47;;;;;;;82.27;35.87;;;;;;;;;;10368982;28;20048;-80
2023/03/07 04:58:48;;;;;;;83.80;37.30;;;;;;;;;;10368461;28;20030;-80
2023/03/07 05:03:49;;;;;;;78.97;37.37;;;;;;;;;;10368361;28;20034;-79
2023/03/07 05:08:50;;;;;;;77.47;36.83;;;;;;;;;;10367861;28;20037;-78
2023/03/07 05:13:51;;;;;;;76.03;37.53;;;;;;;;;;10368136;28;20034;-82
2023/03/07 05:18:52;;;;;;;77.20;38.97;;;;;;;;;;10368005;28;20160;-81
2023/03/07 05:23:54;;;;;;;81.20;39.63;;;;;;;;;;10367396;28;20037;-80
2023/03/07 05:28:55;;;;;;;84.30;38.87;;;;;;;;;;10367410;28;20107;-80
2023/03/07 05:33:55;;;;;;;84.23;38.20;;;;;;;;;;10366848;28;20034;-80
2023/03/07 05:38:57;;;;;;;84.27;37.20;;;;;;;;;;10365840;28;20036;-80
2023/03/07 05:43:58;;;;;;;80.10;37.93;;;;;;;;;;10366581;28;20030;-79
2023/03/07 05:48:59;;;;;;;76.63;35.67;;;;;;;;;;10366009;28;20037;-80
2023/03/07 05:54:00;;;;;;;83.87;34.93;;;;;;;;;;10366106;28;20032;-79
2023/03/07 05:59:01;;;;;;;85.33;38.33;;;;;;;;;;10365690;28;20034;-80
2023/03/07 06:04:02;;;;;;;82.00;36.97;;;;;;;;;;10365784;28;20026;-82
2023/03/07 06:09:04;;;;;;;75.47;32.80;;;;;;;;;;10365575;28;20037;-79
2023/03/07 06:14:05;;;;;;;71.77;35.00;;;;;;;;;;10365344;28;20030;-80
2023/03/07 06:19:06;;;;;;;71.10;32.40;;;;;;;;;;10364012;28;20432;-80
2023/03/07 06:24:07;;;;;;;71.97;33.53;;;;;;;;;;10365310;28;20037;-80
2023/03/07 06:29:08;;;;;;;65.83;29.83;;;;;;;;;;10364874;28;20053;-80
2023/03/07 06:34:10;;;;;;;62.63;29.37;;;;;;;;;;10363457;28;20487;-79
2023/03/07 06:39:12;;;;;;;86.80;39.07;;;;;;;;;;10364369;28;20055;-82
2023/03/07 06:44:13;;;;;;;125.73;51.70;;;;;;;;;;10364345;28;20042;-79
2023/03/07 06:49:14;;;;;;;108.23;43.20;;;;;;;;;;10363630;28;20445;-80
2023/03/07 06:54:15;;;;;;;121.43;52.13;;;;;;;;;;10364581;28;20036;-81
2023/03/07 06:59:16;;;;;;;86.10;39.13;;;;;;;;;;10363932;28;20022;-80
2023/03/07 07:04:17;;;;;;;93.93;37.73;;;;;;;;;;10363660;28;20121;-81
2023/03/07 07:09:18;;;;;;;61.70;27.20;;;;;;;;;;10362176;28;20516;-80
2023/03/07 07:14:20;;;;;;;44.20;19.87;;;;;;;;;;10363625;28;20114;-80
2023/03/07 07:19:21;;;;;;;62.03;26.97;;;;;;;;;;10363171;28;20052;-79
2023/03/07 07:24:22;;;;;;;57.27;24.63;;;;;;;;;;10361383;28;20685;-78
2023/03/07 07:29:23;;;;;;;91.43;43.60;;;;;;;;;;10362323;28;20053;-80
2023/03/07 07:34:24;;;;;;;55.60;22.87;;;;;;;;;;10362779;28;20053;-82
2023/03/07 07:39:25;;;;;;;59.47;24.70;;;;;;;;;;10362348;28;20722;-79
2023/03/07 07:44:30;;;;;;;62.33;26.10;;;;;;;;;;10362803;28;20121;-80
2023/03/07 07:49:31;;;;;;;41.23;20.17;;;;;;;;;;10361871;28;20556;-80
2023/03/07 07:54:32;;;;;;;35.80;16.67;;;;;;;;;;10362317;28;20026;-82
2023/03/07 07:59:33;;;;;;;54.07;23.17;;;;;;;;;;10362226;28;20034;-79
2023/03/07 08:04:34;;;;;;;185.27;80.07;;;;;;;;;;10359258;28;20405;-83
2023/03/07 08:09:35;;;;;;;51.93;26.63;;;;;;;;;;10361780;28;20038;-81
2023/03/07 08:14:36;;;;;;;49.97;23.13;;;;;;;;;;10361472;28;20030;-81
2023/03/07 08:19:37;;;;;;;56.47;23.87;;;;;;;;;;10361595;28;20026;-79
2023/03/07 08:24:38;;;;;;;80.73;43.70;;;;;;;;;;10360096;28;20029;-81
2023/03/07 08:29:39;;;;;;;59.73;25.67;;;;;;;;;;10359730;28;20057;-79
2023/03/07 08:34:40;;;;;;;55.27;23.70;;;;;;;;;;10363217;28;20510;-79
2023/03/07 08:39:41;;;;;;;43.23;19.17;;;;;;;;;;10360637;28;20025;-82
2023/03/07 08:44:42;;;;;;;87.73;37.10;;;;;;;;;;10360468;28;20018;-80
2023/03/07 08:49:44;;;;;;;67.33;28.53;;;;;;;;;;10360991;28;20128;-82
2023/03/07 08:54:45;;;;;;;80.37;42.13;;;;;;;;;;10361246;28;20125;-81
2023/03/07 08:59:46;;;;;;;69.67;27.57;;;;;;;;;;10361123;28;20026;-80
2023/03/07 09:04:47;;;;;;;58.70;23.83;;;;;;;;;;10360365;28;20038;-79
2023/03/07 09:09:48;;;;;;;54.87;24.87;;;;;;;;;;10360996;28;20046;-79
2023/03/07 09:14:49;;;;;;;53.60;24.77;;;;;;;;;;10365185;28;20036;-79
2023/03/07 09:19:50;;;;;;;62.60;23.43;;;;;;;;;;10368097;28;20022;-79
2023/03/07 09:24:51;;;;;;;42.07;19.03;;;;;;;;;;10368242;28;20053;-84
2023/03/07 09:29:52;;;;;;;41.73;19.27;;;;;;;;;;10367401;28;20050;-79
2023/03/07 09:34:53;;;;;;;40.27;19.03;;;;;;;;;;10368049;28;20034;-82
2023/03/07 09:39:54;;;;;;;34.63;18.27;;;;;;;;;;10366936;28;20120;-80
2023/03/07 09:45:07;;;;;;;33.40;15.33;;;;;;;;;;10367097;28;20037;-78
2023/03/07 09:50:25;;;;;;;38.80;19.37;;;;;;;;;;10366435;28;20038;-78
2023/03/07 09:55:27;;;;;;;35.73;18.63;;;;;;;;;;10354944;28;20032;-78
2023/03/07 10:00:39;;;;;;;40.13;18.47;;;;;;;;;;10366378;28;20041;-81
2023/03/07 10:05:43;;;;;;;37.30;16.83;;;;;;;;;;10366087;28;20552;-81
2023/03/07 10:10:52;;;;;;;47.23;18.53;;;;;;;;;;10365735;28;20037;-78
2023/03/07 10:15:55;;;;;;;38.97;17.43;;;;;;;;;;10366343;28;20026;-80
2023/03/07 10:21:04;;;;;;;28.23;14.00;;;;;;;;;;10365518;28;20072;-81
2023/03/07 10:26:14;;;;;;;23.73;12.13;;;;;;;;;;10364405;28;20048;-79
2023/03/07 10:31:25;;;;;;;22.70;10.63;;;;;;;;;;10366065;28;20297;-81
2023/03/07 10:36:41;;;;;;;22.57;10.50;;;;;;;;;;10364437;28;20026;-80
2023/03/07 10:41:42;;;;;;;22.10;10.50;;;;;;;;;;10364631;28;20026;-78
2023/03/07 10:46:44;;;;;;;18.83;8.87;;;;;;;;;;10364688;28;20100;-81
2023/03/07 10:51:52;;;;;;;16.50;8.87;;;;;;;;;;10364214;28;20096;-79
2023/03/07 10:57:03;;;;;;;108.73;57.40;;;;;;;;;;10363630;28;20037;-79
2023/03/07 11:02:24;;;;;;;24.43;9.07;;;;;;;;;;10363909;28;20393;-78
2023/03/07 11:07:29;;;;;;;14.73;7.87;;;;;;;;;;10363231;28;20042;-78
2023/03/07 11:12:31;;;;;;;41.30;16.98;;;;;;;;;;10363286;28;20022;-78
2023/03/07 11:17:42;;;;;;;17.97;9.23;;;;;;;;;;10362983;28;20032;-77
2023/03/07 11:22:45;;;;;;;19.87;10.33;;;;;;;;;;10351625;28;20719;-76
2023/03/07 11:27:49;;;;;;;43.17;18.63;;;;;;;;;;10363213;28;20049;-76
2023/03/07 11:33:08;;;;;;;17.63;9.57;;;;;;;;;;10363229;28;20058;-77
2023/03/07 11:38:28;;;;;;;33.17;14.37;;;;;;;;;;10361239;28;20029;-76
2023/03/07 11:43:58;;;;;;;19.77;10.40;;;;;;;;;;10362601;28;20072;-77
2023/03/07 11:49:06;;;;;;;21.93;11.23;;;;;;;;;;10307946;28;20196;-77
2023/03/07 11:54:10;;;;;;;20.73;10.60;;;;;;;;;;10362209;28;20595;-76
2023/03/07 11:59:32;;;;;;;20.53;11.07;;;;;;;;;;10362173;28;20037;-77
2023/03/07 12:04:59;;;;;;;22.47;11.40;;;;;;;;;;10361786;28;20034;-77
2023/03/07 12:10:09;;;;;;;20.33;11.20;;;;;;;;;;10361194;28;20386;-77
2023/03/07 12:15:19;;;;;;;23.43;11.50;;;;;;;;;;10361486;28;20371;-78
2023/03/07 12:20:28;;;;;;;21.33;10.63;;;;;;;;;;10361128;28;21207;-78
2023/03/07 12:25:41;;;;;;;24.47;11.50;;;;;;;;;;10361427;28;20398;-77
2023/03/07 12:30:49;;;;;;;24.53;12.03;;;;;;;;;;10359047;28;20053;-80
2023/03/07 12:35:53;;;;;;;20.23;10.27;;;;;;;;;;10361013;28;20057;-79
2023/03/07 12:41:12;;;;;;;20.30;11.33;;;;;;;;;;10361637;28;20468;-77
2023/03/07 12:46:32;;;;;;;25.90;12.27;;;;;;;;;;10361278;28;20374;-79
2023/03/07 12:51:36;;;;;;;26.70;13.03;;;;;;;;;;10368005;28;20037;-78
2023/03/07 12:56:49;;;;;;;23.97;11.63;;;;;;;;;;10369119;28;20026;-80
2023/03/07 13:02:11;;;;;;;21.70;10.77;;;;;;;;;;10368506;28;20030;-78
2023/03/07 13:07:18;;;;;;;26.00;12.60;;;;;;;;;;10368142;28;20486;-79
2023/03/07 13:12:25;;;;;;;27.67;12.70;;;;;;;;;;10367888;28;20402;-81
2023/03/07 13:17:29;;;;;;;24.03;13.53;;;;;;;;;;10366666;28;20034;-79
2023/03/07 13:22:30;;;;;;;30.83;16.53;;;;;;;;;;10368075;28;20026;-80
2023/03/07 13:27:40;;;;;;;91.23;40.67;;;;;;;;;;10366884;28;20034;-81
2023/03/07 13:32:48;;;;;;;42.07;18.83;;;;;;;;;;10367916;28;20053;-78
2023/03/07 13:37:50;;;;;;;38.73;16.90;;;;;;;;;;10367507;28;20042;-80
2023/03/07 13:42:51;;;;;;;57.00;23.73;;;;;;;;;;10367447;28;20037;-79
2023/03/07 13:47:52;;;;;;;41.37;19.63;;;;;;;;;;10365138;28;20056;-78
2023/03/07 13:52:53;;;;;;;31.83;16.13;;;;;;;;;;10366805;28;20044;-79
2023/03/07 13:57:55;;;;;;;30.47;14.37;;;;;;;;;;10366843;28;20049;-79
2023/03/07 14:02:56;;;;;;;42.40;19.57;;;;;;;;;;10365012;28;20030;-78
2023/03/07 14:07:58;;;;;;;44.30;19.53;;;;;;;;;;10364431;28;20506;-79
2023/03/07 14:13:04;;;;;;;42.83;18.03;;;;;;;;;;10365607;28;20025;-79
2023/03/07 14:18:19;;;;;;;33.35;16.92;;;;;;;;;;10366198;28;20113;-79
2023/03/07 14:23:28;;;;;;;35.87;17.47;;;;;;;;;;10365565;28;20421;-79
2023/03/07 14:28:29;;;;;;;39.17;16.60;;;;;;;;;;10365286;28;20050;-79
2023/03/07 14:33:32;;;;;;;29.57;12.80;;;;;;;;;;10364722;28;20079;-79
2023/03/07 14:38:33;;;;;;;34.83;16.83;;;;;;;;;;10365066;28;20025;-79
2023/03/07 14:43:54;;;;;;;31.87;14.80;;;;;;;;;;10365031;28;20033;-80
2023/03/07 14:49:07;;;;;;;42.57;18.67;;;;;;;;;;10352481;28;20044;-79
2023/03/07 14:54:20;;;;;;;30.03;13.10;;;;;;;;;;10364096;28;20076;-79
2023/03/07 14:59:21;;;;;;;30.17;13.73;;;;;;;;;;10352063;28;20022;-80
2023/03/07 15:04:29;;;;;;;43.97;19.57;;;;;;;;;;10361826;28;20433;-78
2023/03/07 15:09:31;;;;;;;32.17;15.63;;;;;;;;;;10356627;28;20103;-79
2023/03/07 15:14:43;;;;;;;33.50;16.37;;;;;;;;;;10363996;28;20030;-79
2023/03/07 15:19:47;;;;;;;27.00;14.47;;;;;;;;;;10362894;28;20034;-78
2023/03/07 15:24:49;;;;;;;27.20;12.90;;;;;;;;;;10363539;28;20029;-81
2023/03/07 15:29:50;;;;;;;51.87;22.00;;;;;;;;;;10362299;28;20049;-79
2023/03/07 15:34:58;;;;;;;50.53;22.50;;;;;;;;;;10362845;28;20030;-79
2023/03/07 15:40:08;;;;;;;73.33;30.67;;;;;;;;;;10362716;28;20053;-79
2023/03/07 15:45:26;;;;;;;45.80;22.63;;;;;;;;;;10363383;28;20044;-79
2023/03/07 15:50:28;;;;;;;45.17;22.10;;;;;;;;;;10361793;28;20042;-79
2023/03/07 15:55:29;;;;;;;32.37;15.97;;;;;;;;;;10360876;28;20030;-79
2023/03/07 16:00:35;;;;;;;74.73;30.77;;;;;;;;;;10362433;28;20052;-78
2023/03/07 16:05:36;;;;;;;43.80;22.83;;;;;;;;;;10361542;28;20037;-78
2023/03/07 16:10:39;;;;;;;39.67;18.07;;;;;;;;;;10361998;28;20758;-78
2023/03/07 16:15:40;;;;;;;62.33;28.80;;;;;;;;;;10361547;28;20033;-81
2023/03/07 16:20:42;;;;;;;51.60;25.27;;;;;;;;;;10361447;28;20032;-80
2023/03/07 16:25:43;;;;;;;42.00;20.67;;;;;;;;;;10367905;28;20496;-79
2023/03/07 16:30:44;;;;;;;48.37;23.40;;;;;;;;;;10368142;28;20058;-80
2023/03/07 16:35:46;;;;;;;39.67;19.80;;;;;;;;;;10369566;28;20026;-78
2023/03/07 16:40:47;;;;;;;36.23;19.37;;;;;;;;;;10368967;28;20034;-79
2023/03/07 16:45:48;;;;;;;41.20;21.40;;;;;;;;;;10367248;28;20030;-81
2023/03/07 16:50:49;;;;;;;40.47;20.43;;;;;;;;;;10369068;28;20029;-79
2023/03/07 16:55:50;;;;;;;46.90;24.60;;;;;;;;;;10368384;28;20026;-79
2023/03/07 17:00:51;;;;;;;46.30;24.10;;;;;;;;;;10368493;28;20032;-79
2023/03/07 17:05:52;;;;;;;46.77;24.07;;;;;;;;;;10368036;28;20030;-80
2023/03/07 17:10:53;;;;;;;45.80;20.60;;;;;;;;;;10366796;28;20034;-80
2023/03/07 17:15:54;;;;;;;42.03;21.90;;;;;;;;;;10367719;28;20036;-81
2023/03/07 17:20:55;;;;;;;37.33;18.43;;;;;;;;;;10367956;28;20056;-80
2023/03/07 17:25:56;;;;;;;40.83;20.63;;;;;;;;;;10367829;28;20030;-79
2023/03/07 17:30:57;;;;;;;45.10;23.07;;;;;;;;;;10367001;28;20064;-79
2023/03/07 17:35:59;;;;;;;58.27;29.53;;;;;;;;;;10366760;28;20037;-79
2023/03/07 17:41:00;;;;;;;65.87;29.57;;;;;;;;;;10367152;28;20108;-79
2023/03/07 17:46:01;;;;;;;71.67;30.10;;;;;;;;;;10366227;28;20114;-79
2023/03/07 17:51:09;;;;;;;145.27;67.37;;;;;;;;;;10366637;28;20040;-80
2023/03/07 17:56:15;;;;;;;75.03;34.37;;;;;;;;;;10365671;28;20034;-82
2023/03/07 18:01:16;;;;;;;;;;;;;;;;;;10366811;28;20030;-82
2023/03/07 18:06:17;;;;;;;79.40;34.80;;;;;;;;;;10365474;28;19924;-79
2023/03/07 18:11:18;;;;;;;62.53;30.93;;;;;;;;;;10366106;28;20149;-79
2023/03/07 18:16:19;;;;;;;72.43;35.83;;;;;;;;;;10365776;28;20024;-79
2023/03/07 18:21:23;;;;;;;129.00;56.57;;;;;;;;;;10365829;28;20018;-79
2023/03/07 18:26:24;;;;;;;115.27;53.00;;;;;;;;;;10364937;28;20029;-79
2023/03/07 18:31:29;;;;;;;79.87;37.53;;;;;;;;;;10364957;28;20152;-80
2023/03/07 18:36:30;;;;;;;105.87;46.47;;;;;;;;;;10364260;28;20561;-79
2023/03/07 18:41:31;;;;;;;128.60;55.80;;;;;;;;;;10363761;28;20557;-82
2023/03/07 18:46:32;;;;;;;100.80;48.83;;;;;;;;;;10363274;28;20409;-79
2023/03/07 18:51:33;;;;;;;73.77;36.50;;;;;;;;;;10362609;28;20112;-79
2023/03/07 18:56:34;;;;;;;109.90;49.23;;;;;;;;;;10363939;28;20119;-77
2023/03/07 19:01:36;;;;;;;71.30;36.67;;;;;;;;;;10363754;28;20091;-77
2023/03/07 19:06:39;;;;;;;86.43;41.50;;;;;;;;;;10362383;28;20125;-77
2023/03/07 19:11:40;;;;;;;84.70;40.50;;;;;;;;;;10363384;28;20026;-80
2023/03/07 19:16:41;;;;;;;75.93;39.13;;;;;;;;;;10363000;28;20022;-80
2023/03/07 19:21:42;;;;;;;107.93;57.77;;;;;;;;;;10362213;28;20040;-77
2023/03/07 19:26:43;;;;;;;69.97;35.90;;;;;;;;;;10361313;28;20038;-78
2023/03/07 19:31:44;;;;;;;73.10;34.70;;;;;;;;;;10362220;28;20497;-77
2023/03/07 19:36:45;;;;;;;57.27;28.53;;;;;;;;;;10361495;28;20041;-77
2023/03/07 19:41:46;;;;;;;73.47;34.53;;;;;;;;;;10361519;28;20038;-77
2023/03/07 19:46:47;;;;;;;64.70;31.80;;;;;;;;;;10362102;28;20394;-78
2023/03/07 19:51:48;;;;;;;67.17;33.07;;;;;;;;;;10362009;28;20482;-81
2023/03/07 19:56:50;;;;;;;90.53;43.67;;;;;;;;;;10360595;28;20030;-77
2023/03/07 20:01:51;;;;;;;81.70;46.30;;;;;;;;;;10361145;28;20040;-78
2023/03/07 20:06:52;;;;;;;79.87;35.97;;;;;;;;;;10361073;28;20496;-77
2023/03/07 20:11:54;;;;;;;101.17;54.20;;;;;;;;;;10361817;28;20034;-79
2023/03/07 20:16:55;;;;;;;71.90;33.10;;;;;;;;;;10360507;28;20516;-79
2023/03/07 20:21:56;;;;;;;92.83;41.60;;;;;;;;;;10361464;28;20030;-78
2023/03/07 20:26:57;;;;;;;67.90;31.27;;;;;;;;;;10362269;28;20474;-78
2023/03/07 20:32:00;;;;;;;70.83;35.80;;;;;;;;;;10361183;28;20433;-78
2023/03/07 20:37:01;;;;;;;44.70;23.13;;;;;;;;;;10361027;28;20033;-78
2023/03/07 20:42:02;;;;;;;52.97;25.43;;;;;;;;;;10361434;28;20033;-80
2023/03/07 20:47:03;;;;;;;48.73;23.83;;;;;;;;;;10360980;28;20413;-77
2023/03/07 20:52:04;;;;;;;66.87;33.60;;;;;;;;;;10358843;28;20122;-78
2023/03/07 20:57:05;;;;;;;59.07;26.27;;;;;;;;;;10361029;28;20109;-78
2023/03/07 21:02:06;;;;;;;48.13;21.90;;;;;;;;;;10360046;28;20028;-81
2023/03/07 21:07:07;;;;;;;49.60;22.30;;;;;;;;;;10359979;28;20069;-78
2023/03/07 21:12:10;;;;;;;42.83;20.67;;;;;;;;;;10367219;28;20736;-78
2023/03/07 21:17:11;;;;;;;50.27;23.77;;;;;;;;;;10368029;28;20037;-81
2023/03/07 21:22:13;;;;;;;49.30;22.07;;;;;;;;;;10367715;28;20030;-76
2023/03/07 21:27:14;;;;;;;66.93;28.40;;;;;;;;;;10367081;28;20123;-78
2023/03/07 21:32:15;;;;;;;46.53;22.70;;;;;;;;;;10366999;28;20107;-78
2023/03/07 21:37:16;;;;;;;42.13;19.80;;;;;;;;;;10367459;28;20375;-78
2023/03/07 21:42:17;;;;;;;43.63;22.07;;;;;;;;;;10366446;28;20030;-77
2023/03/07 21:47:18;;;;;;;46.23;20.40;;;;;;;;;;10366582;28;20046;-79
2023/03/07 21:52:19;;;;;;;54.03;23.40;;;;;;;;;;10367076;28;20426;-77
2023/03/07 21:57:20;;;;;;;47.87;22.43;;;;;;;;;;10365676;28;20050;-78
2023/03/07 22:02:22;;;;;;;40.73;20.07;;;;;;;;;;10365030;28;20022;-77
2023/03/07 22:07:23;;;;;;;40.80;21.27;;;;;;;;;;10365379;28;20061;-78
2023/03/07 22:12:24;;;;;;;46.77;21.73;;;;;;;;;;10365181;28;20147;-78
2023/03/07 22:17:25;;;;;;;47.43;22.57;;;;;;;;;;10364797;28;20049;-78
2023/03/07 22:22:26;;;;;;;53.93;24.03;;;;;;;;;;10363610;28;20041;-78
2023/03/07 22:27:27;;;;;;;40.97;20.70;;;;;;;;;;10365433;28;20030;-78
2023/03/07 22:32:28;;;;;;;54.20;25.47;;;;;;;;;;10365574;28;20490;-78
2023/03/07 22:37:29;;;;;;;49.13;25.50;;;;;;;;;;10364343;28;20115;-78
2023/03/07 22:42:30;;;;;;;64.63;29.17;;;;;;;;;;10364675;28;20040;-80
2023/03/07 22:47:31;;;;;;;68.70;34.10;;;;;;;;;;10363693;28;20053;-80
2023/03/07 22:52:32;;;;;;;80.47;38.60;;;;;;;;;;10359202;28;20061;-79
2023/03/07 22:57:33;;;;;;;55.20;25.47;;;;;;;;;;10364427;28;20029;-78
2023/03/07 23:02:34;;;;;;;47.57;22.70;;;;;;;;;;10363568;28;20036;-79
2023/03/07 23:07:35;;;;;;;41.10;20.87;;;;;;;;;;10353823;28;20096;-79
2023/03/07 23:12:36;;;;;;;46.30;20.70;;;;;;;;;;10360904;28;20138;-78
2023/03/07 23:17:37;;;;;;;43.17;19.83;;;;;;;;;;10358274;28;20022;-80
2023/03/07 23:22:39;;;;;;;44.40;21.97;;;;;;;;;;10362203;28;20034;-79
2023/03/07 23:27:43;;;;;;;44.13;21.37;;;;;;;;;;10363059;28;20496;-80
2023/03/07 23:32:44;;;;;;;42.27;20.73;;;;;;;;;;10363154;28;20069;-81
2023/03/07 23:37:47;;;;;;;43.60;21.30;;;;;;;;;;10360614;28;20045;-78
2023/03/07 23:42:48;;;;;;;42.73;19.97;;;;;;;;;;10361988;28;20038;-79
2023/03/07 23:47:49;;;;;;;48.80;23.53;;;;;;;;;;10361522;28;20046;-80
2023/03/07 23:52:50;;;;;;;49.27;25.47;;;;;;;;;;10362557;28;20045;-81
2023/03/07 23:57:51;;;;;;;49.10;23.77;;;;;;;;;;10362097;28;20032;-78
